createdAt,value
2018-05-25T00:00:50.304Z,17.89
2018-05-25T00:03:19.525Z,18.08
2018-05-25T00:05:48.892Z,18.18
2018-05-25T00:08:18.109Z,18.21
2018-05-25T00:10:47.449Z,18.21
2018-05-25T00:13:16.635Z,18.20
2018-05-25T00:15:45.747Z,18.17
2018-05-25T00:18:15.035Z,18.19
2018-05-25T00:20:44.485Z,18.10
2018-05-25T00:23:13.720Z,18.14
2018-05-25T00:25:42.939Z,18.09
2018-05-25T00:28:14.945Z,18.05
2018-05-25T00:30:44.336Z,18.02
2018-05-25T00:33:13.490Z,17.91
2018-05-25T00:35:42.949Z,17.93
2018-05-25T00:38:12.999Z,17.94
2018-05-25T00:40:42.262Z,17.95
2018-05-25T00:43:11.547Z,17.84
2018-05-25T00:45:40.937Z,17.89
2018-05-25T00:48:10.116Z,17.84
2018-05-25T00:50:39.525Z,17.84
2018-05-25T00:53:08.916Z,17.74
2018-05-25T00:55:41.358Z,17.71
2018-05-25T00:58:10.600Z,17.76
2018-05-25T01:00:39.922Z,17.69
2018-05-25T01:03:09.201Z,17.65
2018-05-25T01:05:38.483Z,17.68
2018-05-25T01:08:07.480Z,17.64
2018-05-25T01:10:36.696Z,17.62
2018-05-25T01:13:06.074Z,17.58
2018-05-25T01:15:35.301Z,17.58
2018-05-25T01:18:04.588Z,17.55
2018-05-25T01:20:33.826Z,17.47
2018-05-25T01:23:03.077Z,17.48
2018-05-25T01:25:32.510Z,17.49
2018-05-25T01:28:01.681Z,17.41
2018-05-25T01:30:31.004Z,17.37
2018-05-25T01:33:00.197Z,17.32
2018-05-25T01:35:29.515Z,17.39
2018-05-25T01:37:58.562Z,17.33
2018-05-25T01:40:27.889Z,17.35
2018-05-25T01:42:57.176Z,17.32
2018-05-25T01:45:26.281Z,17.27
2018-05-25T01:47:55.581Z,17.32
2018-05-25T01:50:24.906Z,17.25
2018-05-25T01:52:53.963Z,17.10
2018-05-25T01:55:23.294Z,17.11
2018-05-25T01:57:52.555Z,17.14
2018-05-25T02:00:21.685Z,16.99
2018-05-25T02:02:50.851Z,16.96
2018-05-25T02:05:20.031Z,16.97
2018-05-25T02:07:49.344Z,16.85
2018-05-25T02:10:19.027Z,16.94
2018-05-25T02:12:48.243Z,16.97
2018-05-25T02:15:17.481Z,16.98
2018-05-25T02:17:46.753Z,16.97
2018-05-25T02:20:15.991Z,16.96
2018-05-25T02:22:45.235Z,16.93
2018-05-25T02:25:14.415Z,16.94
2018-05-25T02:27:43.732Z,16.86
2018-05-25T02:30:13.073Z,16.81
2018-05-25T02:32:42.144Z,16.88
2018-05-25T02:35:11.394Z,16.80
2018-05-25T02:37:40.737Z,16.78
2018-05-25T02:40:10.084Z,16.73
2018-05-25T02:42:39.117Z,16.69
2018-05-25T02:45:08.406Z,16.68
2018-05-25T02:47:37.753Z,16.69
2018-05-25T02:50:07.019Z,16.69
2018-05-25T02:52:36.328Z,16.52
2018-05-25T02:55:05.677Z,16.50
2018-05-25T02:57:34.756Z,16.55
2018-05-25T03:00:04.103Z,16.54
2018-05-25T03:02:33.565Z,16.39
2018-05-25T03:05:02.619Z,16.56
2018-05-25T03:07:31.973Z,16.52
2018-05-25T03:10:01.229Z,16.46
2018-05-25T03:12:30.579Z,16.45
2018-05-25T03:14:59.831Z,16.52
2018-05-25T03:17:29.195Z,16.47
2018-05-25T03:19:58.443Z,16.43
2018-05-25T03:22:27.799Z,16.36
2018-05-25T03:24:57.015Z,16.28
2018-05-25T03:27:26.770Z,16.30
2018-05-25T03:29:55.877Z,16.17
2018-05-25T03:32:25.181Z,16.25
2018-05-25T03:34:54.427Z,16.27
2018-05-25T03:37:23.689Z,16.20
2018-05-25T03:39:52.927Z,16.33
2018-05-25T03:42:22.393Z,16.34
2018-05-25T03:44:51.629Z,16.27
2018-05-25T03:47:20.877Z,16.30
2018-05-25T03:49:50.049Z,16.39
2018-05-25T03:52:19.405Z,16.51
2018-05-25T03:54:48.560Z,16.35
2018-05-25T03:57:17.974Z,16.48
2018-05-25T04:04:11.610Z,16.49
2018-05-25T04:06:40.259Z,16.56
2018-05-25T04:09:08.902Z,16.54
2018-05-25T04:11:37.449Z,16.50
2018-05-25T04:14:05.930Z,16.57
2018-05-25T04:16:34.562Z,16.60
2018-05-25T04:19:03.007Z,16.68
2018-05-25T04:21:31.532Z,16.70
2018-05-25T04:24:00.202Z,16.75
2018-05-25T04:26:28.920Z,16.70
2018-05-25T04:28:57.351Z,16.71
2018-05-25T04:31:26.285Z,16.72
2018-05-25T04:33:54.922Z,16.79
2018-05-25T04:36:23.875Z,16.87
2018-05-25T04:38:52.491Z,16.94
2018-05-25T04:41:21.075Z,17.04
2018-05-25T04:43:49.483Z,17.00
2018-05-25T04:46:18.039Z,17.02
2018-05-25T04:48:46.632Z,17.13
2018-05-25T04:51:15.215Z,17.51
2018-05-25T04:53:43.791Z,17.44
2018-05-25T04:56:12.520Z,17.60
2018-05-25T04:58:41.179Z,17.49
2018-05-25T05:01:09.666Z,17.41
2018-05-25T05:03:38.122Z,17.64
2018-05-25T05:06:06.630Z,17.61
2018-05-25T05:08:35.048Z,17.60
2018-05-25T05:11:03.615Z,17.64
2018-05-25T05:13:32.074Z,17.66
2018-05-25T05:16:00.782Z,17.86
2018-05-25T05:18:29.454Z,17.87
2018-05-25T05:20:58.203Z,17.93
2018-05-25T05:23:26.684Z,17.99
2018-05-25T05:25:55.544Z,17.95
2018-05-25T05:28:24.163Z,18.14
2018-05-25T05:30:52.638Z,18.20
2018-05-25T05:33:21.072Z,18.32
2018-05-25T05:35:49.615Z,18.25
2018-05-25T05:38:18.207Z,18.49
2018-05-25T05:40:46.711Z,18.42
2018-05-25T05:43:15.596Z,18.55
2018-05-25T05:45:44.178Z,18.72
2018-05-25T05:48:12.725Z,18.83
2018-05-25T05:50:41.236Z,18.87
2018-05-25T05:53:09.670Z,19.17
2018-05-25T05:55:38.391Z,19.32
2018-05-25T05:58:06.988Z,19.25
2018-05-25T06:00:35.487Z,19.22
2018-05-25T06:05:38.642Z,19.43
2018-05-25T06:08:07.266Z,19.58
2018-05-25T06:10:36.087Z,19.94
2018-05-25T06:13:04.535Z,20.07
2018-05-25T06:15:33.067Z,20.23
2018-05-25T06:18:01.692Z,20.00
2018-05-25T06:20:32.213Z,20.16
2018-05-25T06:23:01.135Z,20.05
2018-05-25T06:25:30.087Z,20.28
2018-05-25T06:28:02.448Z,20.16
2018-05-25T06:30:32.415Z,20.43
2018-05-25T06:33:01.677Z,20.38
2018-05-25T06:35:30.507Z,20.44
2018-05-25T06:38:05.732Z,20.90
2018-05-25T06:40:34.211Z,20.85
2018-05-25T06:43:02.999Z,20.83
2018-05-25T06:45:33.099Z,20.97
2018-05-25T06:48:01.739Z,21.07
2018-05-25T06:50:30.636Z,20.88
2018-05-25T06:52:59.084Z,20.74
2018-05-25T06:55:27.572Z,21.22
2018-05-25T06:57:56.454Z,21.18
2018-05-25T07:00:25.026Z,21.42
2018-05-25T07:02:53.794Z,21.49
2018-05-25T07:05:22.861Z,21.50
2018-05-25T07:07:52.319Z,21.51
2018-05-25T07:10:22.186Z,21.67
2018-05-25T07:12:51.403Z,21.88
2018-05-25T07:15:20.409Z,21.67
2018-05-25T07:17:49.358Z,21.73
2018-05-25T07:20:18.609Z,21.65
2018-05-25T07:22:47.319Z,22.09
2018-05-25T07:25:32.441Z,22.22
2018-05-25T07:28:01.256Z,22.13
2018-05-25T07:30:30.648Z,22.37
2018-05-25T07:33:00.036Z,22.41
2018-05-25T07:35:28.880Z,22.70
2018-05-25T07:38:01.742Z,22.72
2018-05-25T07:40:30.649Z,22.48
2018-05-25T07:42:59.636Z,22.74
2018-05-25T07:45:28.580Z,22.98
2018-05-25T07:47:57.195Z,22.76
2018-05-25T07:53:05.159Z,23.18
2018-05-25T07:55:33.901Z,23.31
2018-05-25T07:58:02.529Z,23.13
2018-05-25T08:00:31.208Z,23.68
2018-05-25T08:03:00.379Z,23.12
2018-05-25T08:05:30.223Z,22.92
2018-05-25T08:07:59.903Z,23.18
2018-05-25T08:10:28.754Z,23.41
2018-05-25T08:12:58.205Z,23.36
2018-05-25T08:15:28.226Z,23.52
2018-05-25T08:17:57.364Z,23.84
2018-05-25T08:20:26.244Z,23.75
2018-05-25T08:22:56.622Z,23.84
2018-05-25T08:25:28.174Z,23.51
2018-05-25T08:28:07.363Z,23.69
2018-05-25T08:30:36.228Z,23.94
2018-05-25T08:33:05.141Z,23.86
2018-05-25T08:35:35.296Z,23.86
2018-05-25T08:38:04.500Z,23.99
2018-05-25T08:40:33.489Z,24.07
2018-05-25T08:43:02.294Z,24.21
2018-05-25T08:45:31.016Z,23.92
2018-05-25T08:47:59.836Z,23.91
2018-05-25T08:50:28.948Z,24.15
2018-05-25T08:52:57.635Z,24.37
2018-05-25T08:55:26.629Z,24.50
2018-05-25T08:57:55.468Z,24.91
2018-05-25T09:00:23.975Z,24.82
2018-05-25T09:02:52.687Z,24.55
2018-05-25T09:05:21.420Z,25.02
2018-05-25T09:07:50.037Z,24.78
2018-05-25T09:10:18.961Z,24.38
2018-05-25T09:12:47.712Z,24.81
2018-05-25T09:15:16.233Z,24.94
2018-05-25T09:17:44.927Z,24.99
2018-05-25T09:20:14.032Z,25.07
2018-05-25T09:22:42.880Z,25.42
2018-05-25T09:25:11.767Z,25.19
2018-05-25T09:27:41.476Z,25.54
2018-05-25T09:30:12.841Z,25.34
2018-05-25T09:32:43.358Z,25.27
2018-05-25T09:35:12.116Z,25.55
2018-05-25T09:37:40.990Z,26.00
2018-05-25T09:40:09.580Z,25.67
2018-05-25T09:42:38.232Z,25.61
2018-05-25T09:45:07.094Z,25.80
2018-05-25T09:47:35.789Z,25.69
2018-05-25T09:50:05.317Z,26.10
2018-05-25T09:52:33.902Z,26.15
2018-05-25T09:55:02.575Z,26.13
2018-05-25T09:57:31.535Z,25.29
2018-05-25T10:00:00.563Z,25.76
2018-05-25T10:02:29.085Z,26.12
2018-05-25T10:04:57.553Z,25.90
2018-05-25T10:07:26.286Z,26.19
2018-05-25T10:09:55.523Z,26.43
2018-05-25T10:12:24.236Z,26.56
2018-05-25T10:14:52.879Z,26.55
2018-05-25T10:17:22.791Z,26.60
2018-05-25T10:19:51.324Z,27.04
2018-05-25T10:22:20.086Z,26.89
2018-05-25T10:24:49.169Z,27.19
2018-05-25T10:27:18.270Z,26.84
2018-05-25T10:29:46.882Z,26.95
2018-05-25T10:32:15.562Z,27.37
2018-05-25T10:34:44.063Z,27.18
2018-05-25T10:37:13.063Z,27.58
2018-05-25T10:39:41.772Z,28.38
2018-05-25T10:42:10.283Z,28.80
2018-05-25T10:44:38.764Z,29.20
2018-05-25T10:47:08.056Z,29.08
2018-05-25T10:49:36.531Z,28.04
2018-05-25T10:52:05.059Z,27.13
2018-05-25T10:54:33.515Z,29.33
2018-05-25T10:57:02.163Z,29.88
2018-05-25T10:59:30.864Z,29.79
2018-05-25T11:01:59.629Z,29.77
2018-05-25T11:04:28.223Z,30.27
2018-05-25T11:06:56.844Z,29.68
2018-05-25T11:09:25.612Z,30.47
2018-05-25T11:11:54.173Z,30.57
2018-05-25T11:14:22.973Z,30.45
2018-05-25T11:16:51.847Z,30.91
2018-05-25T11:19:20.455Z,30.83
2018-05-25T11:21:49.144Z,31.09
2018-05-25T11:24:17.891Z,31.26
2018-05-25T11:26:46.928Z,30.82
2018-05-25T11:29:15.401Z,31.49
2018-05-25T11:31:44.219Z,31.09
2018-05-25T11:34:13.771Z,30.37
2018-05-25T11:36:42.774Z,31.43
2018-05-25T11:39:12.221Z,31.52
2018-05-25T11:41:41.203Z,31.86
2018-05-25T11:44:10.120Z,31.61
2018-05-25T11:46:39.377Z,31.97
2018-05-25T11:49:07.942Z,32.27
2018-05-25T11:51:37.828Z,31.91
2018-05-25T11:54:06.839Z,32.21
2018-05-25T11:56:35.538Z,31.12
2018-05-25T11:59:04.192Z,30.36
2018-05-25T12:01:33.164Z,28.49
2018-05-25T12:04:02.768Z,29.01
2018-05-25T12:06:31.449Z,28.28
2018-05-25T12:08:59.915Z,28.80
2018-05-25T12:11:28.706Z,30.39
2018-05-25T12:13:57.342Z,30.83
2018-05-25T12:16:26.087Z,32.31
2018-05-25T12:18:54.542Z,31.59
2018-05-25T12:21:23.581Z,31.46
2018-05-25T12:23:52.993Z,31.12
2018-05-25T12:26:22.819Z,32.63
2018-05-25T12:28:51.438Z,30.88
2018-05-25T12:31:20.361Z,28.82
2018-05-25T12:33:48.960Z,28.10
2018-05-25T12:36:18.884Z,30.68
2018-05-25T12:38:47.455Z,30.87
2018-05-25T12:41:16.093Z,30.02
2018-05-25T12:43:44.683Z,28.80
2018-05-25T12:46:13.156Z,28.76
2018-05-25T12:48:41.713Z,28.36
2018-05-25T12:51:10.393Z,27.36
2018-05-25T12:53:40.870Z,31.07
2018-05-25T12:56:09.802Z,31.45
2018-05-25T12:58:38.949Z,30.38
2018-05-25T13:01:07.951Z,31.26
2018-05-25T13:03:36.416Z,31.93
2018-05-25T13:06:04.987Z,32.86
2018-05-25T13:08:33.502Z,34.10
2018-05-25T13:11:02.290Z,30.90
2018-05-25T13:13:31.179Z,28.95
2018-05-25T13:16:06.094Z,29.20
2018-05-25T13:18:36.095Z,27.99
2018-05-25T13:21:04.692Z,29.46
2018-05-25T13:23:33.182Z,33.32
2018-05-25T13:26:02.472Z,34.12
2018-05-25T13:28:32.032Z,32.85
2018-05-25T13:31:00.630Z,32.61
2018-05-25T13:33:29.323Z,32.67
2018-05-25T13:35:58.373Z,30.80
2018-05-25T13:38:26.918Z,31.82
2018-05-25T13:40:55.474Z,29.99
2018-05-25T13:43:24.508Z,29.02
2018-05-25T13:45:53.314Z,30.20
2018-05-25T13:48:21.819Z,28.52
2018-05-25T13:50:50.333Z,29.55
2018-05-25T13:53:19.641Z,32.80
2018-05-25T13:55:48.279Z,33.07
2018-05-25T13:58:17.049Z,32.44
2018-05-25T14:00:45.607Z,29.80
2018-05-25T14:03:15.852Z,29.72
2018-05-25T14:05:47.916Z,34.61
2018-05-25T14:08:17.515Z,33.40
2018-05-25T14:10:46.048Z,31.70
2018-05-25T14:13:15.003Z,31.58
2018-05-25T14:15:43.747Z,32.80
2018-05-25T14:18:12.314Z,34.61
2018-05-25T14:20:40.917Z,31.73
2018-05-25T14:23:10.694Z,29.80
2018-05-25T14:25:39.253Z,31.85
2018-05-25T14:28:07.759Z,31.64
2018-05-25T14:30:36.648Z,32.41
2018-05-25T14:33:05.880Z,31.88
2018-05-25T14:35:35.221Z,32.77
2018-05-25T14:38:03.784Z,32.04
2018-05-25T14:40:32.277Z,32.92
2018-05-25T14:43:00.910Z,32.84
2018-05-25T14:45:29.536Z,32.05
2018-05-25T14:47:58.281Z,30.28
2018-05-25T14:50:27.061Z,29.91
2018-05-25T14:52:55.722Z,29.50
2018-05-25T14:55:24.397Z,29.07
2018-05-25T14:57:53.614Z,28.87
2018-05-25T15:00:23.616Z,29.22
2018-05-25T15:02:52.311Z,28.42
2018-05-25T15:05:20.830Z,28.26
2018-05-25T15:07:49.406Z,28.00
2018-05-25T15:10:18.775Z,28.15
2018-05-25T15:12:48.333Z,29.05
2018-05-25T15:15:17.586Z,28.27
2018-05-25T15:17:47.326Z,28.02
2018-05-25T15:20:16.003Z,28.05
2018-05-25T15:22:44.785Z,28.00
2018-05-25T15:25:14.919Z,28.40
2018-05-25T15:27:43.763Z,28.44
2018-05-25T15:30:13.134Z,28.54
2018-05-25T15:32:41.919Z,28.05
2018-05-25T15:35:10.351Z,27.80
2018-05-25T15:37:38.923Z,27.47
2018-05-25T15:40:07.752Z,27.78
2018-05-25T15:42:36.459Z,28.40
2018-05-25T15:45:04.975Z,31.11
2018-05-25T15:47:33.537Z,30.63
2018-05-25T15:50:02.455Z,29.33
2018-05-25T15:52:31.196Z,28.85
2018-05-25T15:54:59.660Z,31.11
2018-05-25T15:57:28.403Z,32.72
2018-05-25T15:59:57.837Z,32.67
2018-05-25T16:02:26.518Z,33.36
2018-05-25T16:04:55.045Z,33.62
2018-05-25T16:07:23.639Z,33.85
2018-05-25T16:09:53.175Z,33.16
2018-05-25T16:12:21.725Z,31.29
2018-05-25T16:14:50.857Z,29.13
2018-05-25T16:17:21.603Z,29.02
2018-05-25T16:19:50.312Z,29.43
2018-05-25T16:22:25.495Z,30.96
2018-05-25T16:24:55.667Z,32.19
2018-05-25T16:27:29.360Z,32.55
2018-05-25T16:29:59.015Z,31.78
2018-05-25T16:32:28.836Z,31.48
2018-05-25T16:35:01.675Z,28.57
2018-05-25T16:37:31.660Z,28.34
2018-05-25T16:40:01.242Z,28.07
2018-05-25T16:42:29.900Z,27.18
2018-05-25T16:44:59.084Z,27.33
2018-05-25T16:47:27.932Z,27.10
2018-05-25T16:49:57.295Z,27.11
2018-05-25T16:52:26.147Z,27.01
2018-05-25T16:54:55.171Z,26.88
2018-05-25T16:57:24.068Z,26.93
2018-05-25T16:59:53.138Z,26.75
2018-05-25T17:02:22.122Z,26.74
2018-05-25T17:04:52.696Z,26.74
2018-05-25T17:07:24.270Z,26.70
2018-05-25T17:09:53.258Z,26.53
2018-05-25T17:12:33.833Z,26.15
2018-05-25T17:15:05.815Z,26.16
2018-05-25T17:17:36.714Z,26.02
2018-05-25T17:20:06.269Z,25.94
2018-05-25T17:22:35.124Z,25.79
2018-05-25T17:25:06.690Z,25.78
2018-05-25T17:27:36.421Z,25.77
2018-05-25T17:30:05.396Z,25.65
2018-05-25T17:32:37.803Z,25.54
2018-05-25T17:35:07.395Z,25.56
2018-05-25T17:37:36.762Z,25.41
2018-05-25T17:40:06.359Z,25.39
2018-05-25T17:42:38.371Z,25.33
2018-05-25T17:45:08.411Z,25.21
2018-05-25T17:47:41.275Z,25.21
2018-05-25T17:50:13.009Z,25.09
2018-05-25T17:52:42.685Z,24.94
2018-05-25T17:55:13.576Z,24.64
2018-05-25T17:57:42.406Z,24.49
2018-05-25T18:00:14.029Z,24.42
2018-05-25T18:02:43.161Z,24.20
2018-05-25T18:05:13.290Z,24.18
2018-05-25T18:07:42.121Z,24.07
2018-05-25T18:10:10.752Z,23.86
2018-05-25T18:12:39.869Z,23.93
2018-05-25T18:15:08.624Z,23.78
2018-05-25T18:17:42.178Z,23.66
2018-05-25T18:20:13.218Z,23.64
2018-05-25T18:22:45.177Z,23.53
2018-05-25T18:25:14.372Z,23.44
2018-05-25T18:27:43.864Z,23.35
2018-05-25T18:30:14.211Z,23.30
2018-05-25T18:32:48.346Z,23.14
2018-05-25T18:35:18.150Z,23.12
2018-05-25T18:37:47.300Z,23.07
2018-05-25T18:40:20.541Z,23.05
2018-05-25T18:42:51.668Z,22.96
2018-05-25T18:45:21.511Z,22.90
2018-05-25T18:47:51.016Z,22.82
2018-05-25T18:50:20.165Z,22.58
2018-05-25T18:52:50.167Z,22.48
2018-05-25T18:55:20.957Z,22.63
2018-05-25T18:57:51.311Z,22.48
2018-05-25T19:00:30.969Z,22.28
2018-05-25T19:03:00.527Z,22.45
2018-05-25T19:05:30.441Z,22.23
2018-05-25T19:08:00.177Z,22.29
2018-05-25T19:10:48.993Z,22.29
2018-05-25T19:13:19.749Z,22.16
2018-05-25T19:15:50.968Z,22.15
2018-05-25T19:18:20.750Z,22.03
2018-05-25T19:20:51.119Z,22.05
2018-05-25T19:23:20.291Z,21.92
2018-05-25T19:25:50.457Z,21.87
2018-05-25T19:28:19.032Z,21.81
2018-05-25T19:30:48.192Z,21.68
2018-05-25T19:33:17.021Z,21.64
2018-05-25T19:35:51.180Z,21.69
2018-05-25T19:38:23.052Z,21.64
2018-05-25T19:40:52.252Z,21.65
2018-05-25T19:43:22.851Z,21.55
2018-05-25T19:45:53.139Z,21.51
2018-05-25T19:48:22.220Z,21.52
2018-05-25T19:50:52.533Z,21.47
2018-05-25T19:53:21.497Z,21.42
2018-05-25T19:55:51.367Z,21.28
2018-05-25T19:58:20.556Z,21.37
2018-05-25T20:00:49.955Z,21.33
2018-05-25T20:03:23.375Z,21.23
2018-05-25T20:05:56.443Z,21.21
2018-05-25T20:08:26.771Z,21.19
2018-05-25T20:10:55.846Z,21.19
2018-05-25T20:13:26.947Z,21.11
2018-05-25T20:15:55.970Z,21.06
2018-05-25T20:18:26.225Z,20.99
2018-05-25T20:20:56.638Z,20.89
2018-05-25T20:23:27.296Z,20.83
2018-05-25T20:25:56.839Z,20.86
2018-05-25T20:28:28.614Z,20.80
2018-05-25T20:30:59.905Z,20.69
2018-05-25T20:33:30.190Z,20.62
2018-05-25T20:35:59.885Z,20.68
2018-05-25T20:38:31.947Z,20.54
2018-05-25T20:41:03.310Z,20.51
2018-05-25T20:43:37.111Z,20.45
2018-05-25T20:46:09.064Z,20.42
2018-05-25T20:48:38.157Z,20.35
2018-05-25T20:51:09.337Z,20.28
2018-05-25T20:53:41.982Z,20.29
2018-05-25T20:56:14.755Z,20.24
2018-05-25T20:58:43.936Z,20.23
2018-05-25T21:01:14.812Z,20.09
2018-05-25T21:03:50.891Z,19.97
2018-05-25T21:06:22.020Z,20.01
2018-05-25T21:08:50.660Z,20.10
2018-05-25T21:11:20.232Z,20.09
2018-05-25T21:13:49.477Z,19.94
2018-05-25T21:16:19.326Z,19.78
2018-05-25T21:18:48.546Z,19.87
2018-05-25T21:21:19.501Z,19.82
2018-05-25T21:23:48.756Z,19.78
2018-05-25T21:26:18.079Z,19.83
2018-05-25T21:28:47.413Z,19.86
2018-05-25T21:31:16.820Z,19.65
2018-05-25T21:33:46.299Z,19.72
2018-05-25T21:36:15.135Z,19.55
2018-05-25T21:38:44.420Z,19.69
2018-05-25T21:41:15.363Z,19.62
2018-05-25T21:43:44.779Z,19.50
2018-05-25T21:46:14.465Z,19.45
2018-05-25T21:48:43.807Z,19.43
2018-05-25T21:51:12.916Z,19.52
2018-05-25T21:53:43.806Z,19.45
2018-05-25T21:56:12.855Z,19.50
2018-05-25T21:58:42.227Z,19.52
2018-05-25T22:01:10.772Z,19.41
2018-05-25T22:03:39.901Z,19.51
2018-05-25T22:06:11.187Z,19.46
2018-05-25T22:08:40.191Z,19.28
2018-05-25T22:11:10.215Z,19.30
2018-05-25T22:13:39.316Z,19.19
2018-05-25T22:16:08.289Z,19.20
2018-05-25T22:18:37.102Z,19.05
2018-05-25T22:21:06.784Z,18.85
2018-05-25T22:23:36.492Z,18.85
2018-05-25T22:26:05.074Z,18.77
2018-05-25T22:28:33.702Z,18.76
2018-05-25T22:31:02.700Z,18.63
2018-05-25T22:33:32.469Z,18.59
2018-05-25T22:36:06.446Z,18.53
2018-05-25T22:38:36.120Z,18.59
2018-05-25T22:41:04.638Z,18.41
2018-05-25T22:43:44.127Z,18.65
2018-05-25T22:46:25.441Z,18.62
2018-05-25T22:49:05.432Z,18.53
2018-05-25T22:51:45.126Z,18.44
2018-05-25T22:54:52.090Z,18.54
2018-05-25T22:57:20.739Z,18.42
2018-05-25T22:59:49.763Z,18.43
2018-05-25T23:02:18.335Z,18.32
2018-05-25T23:04:47.107Z,18.19
2018-05-25T23:07:16.926Z,18.20
2018-05-25T23:09:45.368Z,18.14
2018-05-25T23:12:14.843Z,18.05
2018-05-25T23:14:43.483Z,18.00
2018-05-25T23:17:12.488Z,18.02
2018-05-25T23:19:41.867Z,17.98
2018-05-25T23:22:11.834Z,17.96
2018-05-25T23:24:40.293Z,17.92
2018-05-25T23:27:08.827Z,17.85
2018-05-25T23:29:37.469Z,17.76
2018-05-25T23:32:06.238Z,17.75
2018-05-25T23:34:35.459Z,17.51
2018-05-25T23:37:04.790Z,17.68
2018-05-25T23:39:33.481Z,17.65
2018-05-25T23:42:02.043Z,17.60
2018-05-25T23:44:30.478Z,17.70
2018-05-25T23:46:58.975Z,17.69
2018-05-25T23:49:27.403Z,17.62
2018-05-25T23:51:56.683Z,17.56
2018-05-25T23:54:25.308Z,17.49
2018-05-25T23:56:53.863Z,17.48
2018-05-25T23:59:22.519Z,17.40
